createdAt,value
2022-07-29T00:02:05.971Z,1.77
2022-07-29T00:04:36.466Z,2.20
2022-07-29T00:07:04.951Z,2.10
2022-07-29T00:09:33.121Z,1.90
2022-07-29T00:12:10.155Z,1.80
2022-07-29T00:14:38.167Z,2.40
2022-07-29T00:17:07.534Z,1.80
2022-07-29T00:19:35.813Z,2.00
2022-07-29T00:22:03.845Z,1.80
2022-07-29T00:24:31.701Z,1.83
2022-07-29T00:26:59.713Z,1.73
2022-07-29T00:29:35.362Z,1.80
2022-07-29T00:32:03.619Z,1.87
2022-07-29T00:34:50.206Z,1.70
2022-07-29T00:37:18.068Z,1.70
2022-07-29T00:39:46.043Z,1.70
2022-07-29T00:42:13.920Z,1.40
2022-07-29T00:44:42.511Z,1.67
2022-07-29T00:47:11.627Z,1.97
2022-07-29T00:49:41.597Z,1.70
2022-07-29T00:52:10.933Z,1.90
2022-07-29T00:54:44.575Z,1.47
2022-07-29T00:57:13.805Z,1.80
2022-07-29T00:59:42.448Z,1.60
2022-07-29T01:02:10.372Z,1.90
2022-07-29T01:04:38.267Z,1.60
2022-07-29T01:07:08.077Z,1.90
2022-07-29T01:09:45.215Z,1.77
2022-07-29T01:12:17.084Z,1.80
2022-07-29T01:14:45.755Z,2.00
2022-07-29T01:17:19.578Z,2.10
2022-07-29T01:19:54.866Z,2.10
2022-07-29T01:22:33.890Z,2.00
2022-07-29T01:25:32.108Z,2.03
2022-07-29T01:28:13.508Z,2.03
2022-07-29T01:30:45.182Z,1.97
2022-07-29T01:33:37.302Z,2.33
2022-07-29T01:36:12.825Z,1.90
2022-07-29T01:38:43.418Z,2.30
2022-07-29T01:41:14.773Z,1.83
2022-07-29T01:43:51.490Z,2.27
2022-07-29T01:46:26.623Z,2.10
2022-07-29T01:48:59.004Z,2.00
2022-07-29T01:51:33.579Z,2.40
2022-07-29T01:54:06.192Z,2.40
2022-07-29T01:56:35.300Z,2.10
2022-07-29T01:59:06.446Z,2.10
2022-07-29T02:01:38.034Z,2.50
2022-07-29T02:04:08.772Z,2.23
2022-07-29T02:06:40.171Z,2.00
2022-07-29T02:09:09.213Z,2.00
2022-07-29T02:11:39.588Z,2.30
2022-07-29T02:14:09.312Z,2.20
2022-07-29T02:16:41.419Z,2.30
2022-07-29T02:19:10.679Z,2.20
2022-07-29T02:21:40.815Z,2.47
2022-07-29T02:24:10.559Z,2.40
2022-07-29T02:26:40.176Z,2.40
2022-07-29T02:29:10.391Z,2.40
2022-07-29T02:31:41.450Z,2.50
2022-07-29T02:34:10.973Z,2.33
2022-07-29T02:36:39.859Z,2.43
2022-07-29T02:39:10.606Z,2.50
2022-07-29T02:41:44.190Z,2.70
2022-07-29T02:44:14.032Z,2.33
2022-07-29T02:46:50.051Z,2.30
2022-07-29T02:49:25.720Z,2.50
2022-07-29T02:51:58.990Z,2.50
2022-07-29T02:54:33.568Z,2.70
2022-07-29T02:57:05.862Z,2.70
2022-07-29T02:59:38.594Z,2.70
2022-07-29T03:02:10.649Z,2.63
2022-07-29T03:04:41.907Z,2.50
2022-07-29T03:07:12.372Z,2.77
2022-07-29T03:09:41.072Z,2.53
2022-07-29T03:12:09.194Z,2.47
2022-07-29T03:14:38.924Z,2.80
2022-07-29T03:17:09.265Z,2.53
2022-07-29T03:19:38.373Z,2.50
2022-07-29T03:22:06.310Z,2.53
2022-07-29T03:24:36.366Z,2.27
2022-07-29T03:27:04.907Z,2.70
2022-07-29T03:29:34.646Z,2.47
2022-07-29T03:32:07.419Z,2.50
2022-07-29T03:34:39.364Z,2.60
2022-07-29T03:37:08.176Z,2.40
2022-07-29T03:39:41.803Z,2.70
2022-07-29T03:42:12.378Z,2.47
2022-07-29T03:44:43.345Z,2.77
2022-07-29T03:47:13.016Z,2.70
2022-07-29T03:49:42.969Z,2.63
2022-07-29T03:52:11.118Z,2.40
2022-07-29T03:54:39.083Z,2.33
2022-07-29T03:57:08.995Z,2.40
2022-07-29T03:59:38.864Z,2.40
2022-07-29T04:02:10.466Z,2.60
2022-07-29T04:04:38.981Z,2.53
2022-07-29T04:07:08.256Z,2.90
2022-07-29T04:09:36.108Z,2.70
2022-07-29T04:12:04.595Z,2.77
2022-07-29T04:14:34.461Z,2.77
2022-07-29T04:17:02.912Z,2.30
2022-07-29T04:19:31.063Z,2.90
2022-07-29T04:21:59.245Z,3.00
2022-07-29T04:24:29.237Z,2.70
2022-07-29T04:26:57.197Z,3.20
2022-07-29T04:29:24.960Z,2.80
2022-07-29T04:31:52.809Z,3.17
2022-07-29T04:34:21.135Z,2.80
2022-07-29T04:36:49.132Z,3.23
2022-07-29T04:39:22.789Z,2.43
2022-07-29T04:41:54.943Z,2.40
2022-07-29T04:44:28.497Z,2.37
2022-07-29T04:46:58.514Z,2.57
2022-07-29T04:49:26.876Z,2.23
2022-07-29T04:51:55.236Z,2.30
2022-07-29T04:54:23.038Z,2.70
2022-07-29T04:56:52.239Z,2.77
2022-07-29T04:59:20.054Z,2.40
2022-07-29T05:01:48.476Z,2.60
2022-07-29T05:04:16.729Z,2.67
2022-07-29T05:06:44.752Z,2.77
2022-07-29T05:09:12.548Z,2.53
2022-07-29T05:11:40.427Z,3.00
2022-07-29T05:14:10.540Z,2.80
2022-07-29T05:16:40.074Z,2.43
2022-07-29T05:19:13.685Z,2.67
2022-07-29T05:21:42.144Z,2.43
2022-07-29T05:24:10.101Z,2.40
2022-07-29T05:26:37.950Z,2.80
2022-07-29T05:29:05.789Z,2.73
2022-07-29T05:31:35.467Z,2.40
2022-07-29T05:34:03.522Z,2.20
2022-07-29T05:36:31.449Z,2.40
2022-07-29T05:38:59.309Z,2.40
2022-07-29T05:41:27.064Z,2.67
2022-07-29T05:43:55.593Z,2.23
2022-07-29T05:46:23.451Z,2.30
2022-07-29T05:48:52.696Z,2.80
2022-07-29T05:51:20.906Z,2.40
2022-07-29T05:53:48.768Z,2.50
2022-07-29T05:56:16.749Z,2.30
2022-07-29T05:58:44.627Z,2.40
2022-07-29T06:01:12.653Z,2.60
2022-07-29T06:03:42.203Z,2.20
2022-07-29T06:06:11.752Z,2.60
2022-07-29T06:08:41.074Z,2.10
2022-07-29T06:11:09.641Z,2.20
2022-07-29T06:13:37.539Z,2.47
2022-07-29T06:16:06.237Z,2.70
2022-07-29T06:18:34.235Z,5.57
2022-07-29T06:21:02.325Z,2.50
2022-07-29T06:23:31.538Z,3.90
2022-07-29T06:25:59.422Z,2.67
2022-07-29T06:28:27.322Z,2.63
2022-07-29T06:30:55.192Z,2.43
2022-07-29T06:33:23.169Z,2.37
2022-07-29T06:35:53.361Z,7.57
2022-07-29T06:38:30.747Z,5.00
2022-07-29T06:41:02.728Z,3.23
2022-07-29T06:43:34.683Z,2.33
2022-07-29T06:46:04.584Z,3.23
2022-07-29T06:48:32.994Z,2.13
2022-07-29T06:51:01.633Z,2.60
2022-07-29T06:53:30.181Z,4.80
2022-07-29T06:55:59.115Z,4.33
2022-07-29T06:58:29.717Z,2.73
2022-07-29T07:00:58.206Z,4.90
2022-07-29T07:03:26.808Z,2.60
2022-07-29T07:05:55.689Z,3.70
2022-07-29T07:08:24.611Z,2.43
2022-07-29T07:10:52.489Z,2.77
2022-07-29T07:13:20.416Z,2.60
2022-07-29T07:15:49.779Z,6.40
2022-07-29T07:18:18.137Z,2.70
2022-07-29T07:20:46.541Z,2.43
2022-07-29T07:23:14.504Z,2.40
2022-07-29T07:25:43.015Z,2.53
2022-07-29T07:28:11.319Z,3.07
2022-07-29T07:30:39.332Z,2.20
2022-07-29T07:33:08.498Z,2.50
2022-07-29T07:35:37.123Z,6.43
2022-07-29T07:38:06.781Z,2.37
2022-07-29T07:40:34.686Z,2.20
2022-07-29T07:43:02.536Z,2.50
2022-07-29T07:45:30.682Z,3.13
2022-07-29T07:47:58.502Z,2.37
2022-07-29T07:50:28.111Z,2.60
2022-07-29T07:52:58.630Z,2.53
2022-07-29T07:55:28.178Z,2.17
2022-07-29T07:57:56.496Z,2.53
2022-07-29T08:00:24.484Z,2.40
2022-07-29T08:02:52.552Z,2.25
2022-07-29T08:05:20.382Z,2.88
2022-07-29T08:07:49.770Z,2.33
2022-07-29T08:10:39.883Z,2.55
2022-07-29T08:13:09.271Z,2.60
2022-07-29T08:15:37.595Z,2.40
2022-07-29T08:18:08.646Z,2.25
2022-07-29T08:20:37.358Z,3.20
2022-07-29T08:23:09.504Z,2.20
2022-07-29T08:25:38.635Z,2.42
2022-07-29T08:28:08.114Z,2.35
2022-07-29T08:30:36.713Z,2.95
2022-07-29T08:33:04.765Z,2.35
2022-07-29T08:35:35.745Z,3.00
2022-07-29T08:38:06.035Z,2.97
2022-07-29T08:40:33.909Z,2.70
2022-07-29T08:43:07.072Z,2.65
2022-07-29T08:45:47.347Z,2.40
2022-07-29T08:48:17.529Z,2.70
2022-07-29T08:50:46.541Z,2.58
2022-07-29T08:53:17.405Z,2.67
2022-07-29T08:55:47.642Z,2.63
2022-07-29T08:58:22.980Z,2.47
2022-07-29T09:00:53.436Z,2.70
2022-07-29T09:03:26.324Z,2.70
2022-07-29T09:05:55.401Z,2.58
2022-07-29T09:08:25.402Z,2.70
2022-07-29T09:10:54.363Z,2.67
2022-07-29T09:13:22.214Z,2.47
2022-07-29T09:15:50.426Z,3.22
2022-07-29T09:18:36.769Z,2.67
2022-07-29T09:21:23.347Z,3.22
2022-07-29T09:24:07.785Z,2.67
2022-07-29T09:26:38.302Z,3.97
2022-07-29T09:29:13.641Z,3.13
2022-07-29T09:31:44.084Z,2.75
2022-07-29T09:34:15.463Z,2.40
2022-07-29T09:36:44.424Z,2.55
2022-07-29T09:39:15.250Z,3.50
2022-07-29T09:41:50.561Z,2.60
2022-07-29T09:44:19.238Z,3.42
2022-07-29T09:47:07.752Z,6.07
2022-07-29T09:49:40.668Z,2.60
2022-07-29T09:52:10.427Z,3.08
2022-07-29T09:54:39.626Z,2.70
2022-07-29T09:57:10.589Z,2.58
2022-07-29T09:59:50.221Z,2.72
2022-07-29T10:02:22.162Z,2.45
2022-07-29T10:04:52.117Z,2.75
2022-07-29T10:07:20.510Z,2.92
2022-07-29T10:09:55.381Z,2.90
2022-07-29T10:12:23.938Z,2.97
2022-07-29T10:14:52.714Z,3.35
2022-07-29T10:17:21.164Z,2.85
2022-07-29T10:19:50.577Z,2.90
2022-07-29T10:22:43.287Z,2.90
2022-07-29T10:25:08.599Z,2.80
2022-07-29T10:27:36.840Z,3.00
2022-07-29T10:30:06.088Z,2.20
2022-07-29T10:32:50.140Z,2.83
2022-07-29T10:35:33.263Z,2.60
2022-07-29T10:38:29.277Z,2.65
2022-07-29T10:41:25.115Z,2.78
2022-07-29T10:43:55.746Z,2.65
2022-07-29T10:46:27.035Z,2.83
2022-07-29T10:49:15.217Z,2.47
2022-07-29T10:52:03.602Z,2.80
2022-07-29T10:54:46.223Z,2.60
2022-07-29T10:57:21.447Z,2.75
2022-07-29T11:00:33.472Z,2.63
2022-07-29T11:03:04.791Z,2.63
2022-07-29T11:05:55.631Z,3.08
2022-07-29T11:08:28.025Z,2.55
2022-07-29T11:11:44.053Z,2.58
2022-07-29T11:14:40.734Z,2.58
2022-07-29T11:17:09.126Z,2.53
2022-07-29T11:19:40.112Z,2.63
2022-07-29T11:22:10.597Z,2.42
2022-07-29T11:24:39.195Z,2.75
2022-07-29T11:27:20.903Z,2.17
2022-07-29T11:29:55.772Z,2.67
2022-07-29T11:32:25.427Z,3.30
2022-07-29T11:35:17.147Z,3.03
2022-07-29T11:37:55.239Z,2.90
2022-07-29T11:40:25.957Z,2.97
2022-07-29T11:42:55.036Z,2.58
2022-07-29T11:45:48.293Z,3.05
2022-07-29T11:48:29.566Z,2.88
2022-07-29T11:51:01.574Z,2.95
2022-07-29T11:53:32.573Z,3.03
2022-07-29T11:56:02.821Z,3.10
2022-07-29T11:58:32.749Z,3.35
2022-07-29T12:01:04.616Z,2.80
2022-07-29T12:03:35.792Z,2.80
2022-07-29T12:06:13.887Z,2.80
2022-07-29T12:08:45.130Z,3.22
2022-07-29T12:11:22.428Z,3.10
2022-07-29T12:13:51.882Z,3.83
2022-07-29T12:16:25.414Z,3.65
2022-07-29T12:18:58.589Z,3.17
2022-07-29T12:21:29.072Z,3.25
2022-07-29T12:24:03.512Z,2.85
2022-07-29T12:26:37.359Z,3.13
2022-07-29T12:29:08.486Z,3.17
2022-07-29T12:31:42.861Z,2.90
2022-07-29T12:34:12.902Z,2.67
2022-07-29T12:36:41.355Z,4.18
2022-07-29T12:39:10.118Z,2.95
2022-07-29T12:41:38.133Z,3.05
2022-07-29T12:44:06.435Z,3.05
2022-07-29T12:46:34.486Z,3.08
2022-07-29T12:49:05.359Z,3.00
2022-07-29T12:51:34.899Z,3.00
2022-07-29T12:54:08.222Z,2.97
2022-07-29T12:56:45.017Z,3.45
2022-07-29T12:59:17.834Z,3.25
2022-07-29T13:01:45.891Z,3.70
2022-07-29T13:04:27.410Z,4.00
2022-07-29T13:07:02.007Z,2.75
2022-07-29T13:09:40.553Z,2.95
2022-07-29T13:12:10.948Z,3.30
2022-07-29T13:14:41.550Z,2.35
2022-07-29T13:17:12.168Z,2.58
2022-07-29T13:19:43.889Z,2.70
2022-07-29T13:22:13.276Z,3.13
2022-07-29T13:24:52.214Z,3.40
2022-07-29T13:27:21.032Z,2.83
2022-07-29T13:29:52.036Z,2.70
2022-07-29T13:32:20.275Z,2.90
2022-07-29T13:34:58.219Z,2.90
2022-07-29T13:37:26.784Z,3.15
2022-07-29T13:39:55.214Z,2.80
2022-07-29T13:42:23.274Z,3.45
2022-07-29T13:44:52.645Z,2.60
2022-07-29T13:47:20.870Z,2.75
2022-07-29T13:49:48.880Z,2.65
2022-07-29T13:52:18.538Z,2.35
2022-07-29T13:54:46.684Z,2.70
2022-07-29T13:57:15.197Z,2.42
2022-07-29T13:59:44.489Z,3.30
2022-07-29T14:02:14.305Z,2.78
2022-07-29T14:04:43.689Z,3.30
2022-07-29T14:07:16.266Z,2.97
2022-07-29T14:09:46.105Z,2.78
2022-07-29T14:12:14.296Z,2.83
2022-07-29T14:14:42.482Z,2.80
2022-07-29T14:17:11.489Z,3.10
2022-07-29T14:19:39.872Z,2.80
2022-07-29T14:22:12.410Z,3.90
2022-07-29T14:24:40.959Z,3.67
2022-07-29T14:27:10.430Z,3.13
2022-07-29T14:29:38.922Z,2.50
2022-07-29T14:32:08.330Z,2.58
2022-07-29T14:34:36.803Z,3.00
2022-07-29T14:37:06.453Z,2.70
2022-07-29T14:39:38.123Z,2.85
2022-07-29T14:42:13.840Z,2.88
2022-07-29T14:44:42.218Z,2.60
2022-07-29T14:47:10.655Z,3.03
2022-07-29T14:49:38.881Z,2.65
2022-07-29T14:52:07.020Z,2.70
2022-07-29T14:54:34.986Z,2.90
2022-07-29T14:57:02.940Z,3.20
2022-07-29T14:59:32.170Z,3.75
2022-07-29T15:02:00.447Z,3.90
2022-07-29T15:04:28.880Z,4.13
2022-07-29T15:06:56.824Z,4.35
2022-07-29T15:09:24.684Z,4.67
2022-07-29T15:11:52.556Z,4.03
2022-07-29T15:14:20.429Z,3.53
2022-07-29T15:16:49.743Z,3.93
2022-07-29T15:19:20.769Z,3.35
2022-07-29T15:21:49.207Z,3.65
2022-07-29T15:24:17.751Z,3.75
2022-07-29T15:26:45.936Z,3.65
2022-07-29T15:29:14.617Z,3.38
2022-07-29T15:31:42.710Z,3.10
2022-07-29T15:34:12.127Z,3.50
2022-07-29T15:36:55.529Z,3.42
2022-07-29T15:39:23.684Z,3.38
2022-07-29T15:41:52.045Z,3.00
2022-07-29T15:44:21.040Z,2.70
2022-07-29T15:47:04.577Z,3.60
2022-07-29T15:49:48.055Z,3.42
2022-07-29T15:52:25.976Z,3.22
2022-07-29T15:54:55.565Z,3.20
2022-07-29T15:57:24.777Z,3.60
2022-07-29T15:59:52.867Z,3.28
2022-07-29T16:02:20.945Z,3.70
2022-07-29T16:04:50.284Z,2.92
2022-07-29T16:07:18.945Z,3.05
2022-07-29T16:09:52.402Z,3.65
2022-07-29T16:12:22.036Z,3.70
2022-07-29T16:14:51.124Z,4.05
2022-07-29T16:17:19.933Z,3.85
2022-07-29T16:19:48.134Z,4.20
2022-07-29T16:22:17.462Z,3.90
2022-07-29T16:24:45.215Z,4.18
2022-07-29T16:27:13.033Z,4.45
2022-07-29T16:29:41.008Z,4.32
2022-07-29T16:32:08.940Z,4.53
2022-07-29T16:34:36.817Z,3.63
2022-07-29T16:37:05.070Z,4.93
2022-07-29T16:39:34.706Z,4.07
2022-07-29T16:42:05.284Z,3.72
2022-07-29T16:44:34.069Z,3.70
2022-07-29T16:47:03.123Z,3.10
2022-07-29T16:49:31.741Z,3.25
2022-07-29T16:51:59.708Z,3.22
2022-07-29T16:54:28.492Z,2.90
2022-07-29T16:57:00.579Z,3.20
2022-07-29T16:59:29.127Z,3.33
2022-07-29T17:01:57.795Z,3.42
2022-07-29T17:04:26.104Z,3.65
2022-07-29T17:06:54.134Z,3.58
2022-07-29T17:09:22.027Z,3.33
2022-07-29T17:11:55.172Z,3.40
2022-07-29T17:14:27.280Z,3.42
2022-07-29T17:17:01.265Z,3.35
2022-07-29T17:19:30.939Z,2.90
2022-07-29T17:22:08.913Z,3.33
2022-07-29T17:24:40.238Z,2.97
2022-07-29T17:27:09.625Z,3.28
2022-07-29T17:29:39.655Z,3.60
2022-07-29T17:32:08.959Z,3.53
2022-07-29T17:34:36.940Z,3.40
2022-07-29T17:37:05.019Z,3.60
2022-07-29T17:39:33.175Z,3.60
2022-07-29T17:42:01.082Z,3.80
2022-07-29T17:44:29.307Z,4.18
2022-07-29T17:46:58.834Z,3.80
2022-07-29T17:49:27.184Z,3.70
2022-07-29T17:52:00.371Z,3.90
2022-07-29T17:54:28.694Z,4.00
2022-07-29T17:56:56.984Z,3.33
2022-07-29T17:59:25.106Z,3.42
2022-07-29T18:01:53.197Z,3.28
2022-07-29T18:04:23.503Z,3.25
2022-07-29T18:06:51.915Z,3.28
2022-07-29T18:09:19.896Z,3.70
2022-07-29T18:11:48.816Z,2.97
2022-07-29T18:14:16.950Z,3.42
2022-07-29T18:16:44.947Z,2.90
2022-07-29T18:19:12.956Z,3.20
2022-07-29T18:21:51.144Z,3.90
2022-07-29T18:24:25.423Z,4.10
2022-07-29T18:26:53.727Z,4.13
2022-07-29T18:29:21.730Z,3.60
2022-07-29T18:31:50.076Z,3.80
2022-07-29T18:34:18.008Z,4.20
2022-07-29T18:36:48.266Z,4.50
2022-07-29T18:39:20.453Z,4.88
2022-07-29T18:41:51.017Z,4.60
2022-07-29T18:44:22.072Z,4.07
2022-07-29T18:46:51.352Z,3.67
2022-07-29T18:49:19.444Z,4.13
2022-07-29T18:51:49.361Z,4.43
2022-07-29T18:54:17.588Z,4.50
2022-07-29T18:56:45.608Z,4.87
2022-07-29T18:59:16.723Z,5.10
2022-07-29T19:01:45.233Z,5.03
2022-07-29T19:04:13.866Z,7.10
2022-07-29T19:06:41.741Z,6.67
2022-07-29T19:09:11.359Z,7.33
2022-07-29T19:11:39.595Z,6.03
2022-07-29T19:14:08.418Z,6.97
2022-07-29T19:16:36.375Z,7.10
2022-07-29T19:19:04.326Z,6.80
2022-07-29T19:21:32.290Z,5.87
2022-07-29T19:24:06.718Z,5.60
2022-07-29T19:26:43.883Z,5.70
2022-07-29T19:29:11.820Z,4.80
2022-07-29T19:31:39.768Z,5.50
2022-07-29T19:34:07.896Z,8.13
2022-07-29T19:36:36.488Z,5.40
2022-07-29T19:39:04.410Z,4.53
2022-07-29T19:41:32.746Z,5.10
2022-07-29T19:44:01.938Z,5.37
2022-07-29T19:46:29.781Z,5.67
2022-07-29T19:48:57.921Z,6.17
2022-07-29T19:51:25.848Z,5.20
2022-07-29T19:53:53.660Z,10.60
2022-07-29T19:56:21.541Z,8.53
2022-07-29T19:58:52.027Z,6.27
2022-07-29T20:01:22.101Z,6.57
2022-07-29T20:03:49.936Z,5.07
2022-07-29T20:06:17.821Z,6.23
2022-07-29T20:08:46.264Z,6.50
2022-07-29T20:11:14.146Z,6.57
2022-07-29T20:13:42.008Z,6.17
2022-07-29T20:16:09.960Z,5.80
2022-07-29T20:18:39.404Z,6.40
2022-07-29T20:21:07.336Z,6.50
2022-07-29T20:23:35.249Z,6.80
2022-07-29T20:26:06.103Z,7.17
2022-07-29T20:28:37.094Z,6.90
2022-07-29T20:31:05.160Z,6.77
2022-07-29T20:33:33.043Z,6.73
2022-07-29T20:36:02.264Z,6.53
2022-07-29T20:38:30.597Z,13.27
2022-07-29T20:40:58.724Z,7.10
2022-07-29T20:43:27.071Z,6.47
2022-07-29T20:45:54.943Z,6.67
2022-07-29T20:48:22.939Z,6.50
2022-07-29T20:50:51.565Z,6.60
2022-07-29T20:53:20.999Z,7.80
2022-07-29T20:55:48.917Z,5.93
2022-07-29T20:58:17.266Z,5.57
2022-07-29T21:00:45.141Z,6.53
2022-07-29T21:03:13.086Z,6.70
2022-07-29T21:05:43.845Z,6.60
2022-07-29T21:08:12.552Z,6.17
2022-07-29T21:10:41.942Z,5.73
2022-07-29T21:13:10.450Z,6.00
2022-07-29T21:15:38.424Z,6.10
2022-07-29T21:18:16.131Z,6.03
2022-07-29T21:20:43.994Z,6.03
2022-07-29T21:23:11.777Z,5.70
2022-07-29T21:25:41.042Z,6.10
2022-07-29T21:28:22.798Z,6.23
2022-07-29T21:30:50.636Z,5.80
2022-07-29T21:33:18.521Z,6.23
2022-07-29T21:36:15.011Z,6.60
2022-07-29T21:38:34.831Z,6.80
2022-07-29T21:41:05.733Z,6.93
2022-07-29T21:43:33.717Z,6.73
2022-07-29T21:46:02.005Z,6.87
2022-07-29T21:48:30.027Z,7.90
2022-07-29T21:50:58.076Z,8.53
2022-07-29T21:53:28.225Z,8.33
2022-07-29T21:55:56.120Z,7.80
2022-07-29T21:58:25.492Z,8.30
2022-07-29T22:00:53.828Z,8.40
2022-07-29T22:03:21.899Z,7.37
2022-07-29T22:05:49.764Z,7.27
2022-07-29T22:08:17.615Z,7.93
2022-07-29T22:10:45.607Z,7.20
2022-07-29T22:13:13.547Z,7.50
2022-07-29T22:15:46.913Z,7.23
2022-07-29T22:18:20.713Z,7.77
2022-07-29T22:20:49.565Z,6.33
2022-07-29T22:23:17.544Z,7.33
2022-07-29T22:25:45.374Z,6.50
2022-07-29T22:28:13.167Z,7.13
2022-07-29T22:30:42.463Z,8.17
2022-07-29T22:33:17.781Z,7.40
2022-07-29T22:35:48.704Z,7.37
2022-07-29T22:38:17.274Z,8.40
2022-07-29T22:40:45.115Z,7.57
2022-07-29T22:43:13.090Z,8.60
2022-07-29T22:45:42.349Z,8.33
2022-07-29T22:48:10.490Z,8.53
2022-07-29T22:50:39.383Z,9.10
2022-07-29T22:53:07.205Z,7.87
2022-07-29T22:55:35.090Z,7.17
2022-07-29T22:58:02.969Z,8.10
2022-07-29T23:00:30.894Z,8.07
2022-07-29T23:03:00.009Z,7.97
2022-07-29T23:05:27.816Z,7.83
2022-07-29T23:07:55.577Z,7.63
2022-07-29T23:10:23.656Z,8.00
2022-07-29T23:12:51.514Z,7.37
2022-07-29T23:15:19.587Z,7.50
2022-07-29T23:17:47.510Z,7.67
2022-07-29T23:20:16.696Z,7.20
2022-07-29T23:22:44.530Z,6.70
2022-07-29T23:25:12.350Z,7.40
2022-07-29T23:27:40.195Z,7.10
2022-07-29T23:30:09.187Z,8.00
2022-07-29T23:32:37.020Z,8.57
2022-07-29T23:35:06.955Z,6.23
2022-07-29T23:37:36.539Z,5.50
2022-07-29T23:40:05.100Z,6.43
2022-07-29T23:42:33.016Z,6.73
2022-07-29T23:45:00.793Z,6.60
2022-07-29T23:47:28.969Z,7.20
2022-07-29T23:49:56.950Z,7.27
2022-07-29T23:52:24.760Z,6.47
2022-07-29T23:54:53.958Z,6.10
2022-07-29T23:57:24.127Z,5.13
2022-07-29T23:59:52.774Z,5.53
